Time;durP1;ratioP1;P1;durP2;ratioP2;P2;SDS_P1;SDS_P2;PMS_P1;PMS_P2;Temp;Humidity;BMP_temperature;BMP_pressure;BME280_temperature;BME280_humidity;BME280_pressure;Samples;Min_cycle;Max_cycle;Signal;HPM_P1;HPM_P2
2022/03/11 00:02:23;;;;;;;3.87;1.67;;;;;;;-5.12;39.36;101786.49;1753873;80;21086;-62
2022/03/11 00:04:52;;;;;;;2.67;1.30;;;;;;;-5.16;39.62;101779.07;1753942;80;21106;-62
2022/03/11 00:07:23;;;;;;;6.90;1.80;;;;;;;-5.18;39.55;101779.60;1753933;82;21482;-62
2022/03/11 00:09:53;;;;;;;4.47;1.70;;;;;;;-5.17;39.84;101778.67;1753952;82;21082;-61
2022/03/11 00:12:23;;;;;;;4.00;1.50;;;;;;;-5.22;39.51;101781.09;1754161;82;21475;-62
2022/03/11 00:14:54;;;;;;;6.62;1.85;;;;;;;-5.26;39.65;101788.83;1753954;81;21444;-63
2022/03/11 00:17:25;;;;;;;4.70;1.65;;;;;;;-5.27;39.93;101787.09;1754037;82;21540;-62
2022/03/11 00:19:54;;;;;;;4.03;1.30;;;;;;;-5.26;40.05;101778.15;1753921;82;21484;-62
2022/03/11 00:22:24;;;;;;;2.77;1.50;;;;;;;-5.23;40.06;101779.36;1754065;81;21439;-63
2022/03/11 00:24:54;;;;;;;2.80;1.20;;;;;;;-5.22;39.85;101778.42;1753967;80;21046;-62
2022/03/11 00:27:22;;;;;;;3.75;1.60;;;;;;;-5.23;39.92;101767.34;1724938;82;21078;-62
2022/03/11 00:29:51;;;;;;;5.55;1.72;;;;;;;-5.24;39.82;101771.80;1753514;82;21525;-62
2022/03/11 00:32:21;;;;;;;5.80;1.77;;;;;;;-5.27;39.92;101784.42;1753991;82;21078;-63
2022/03/11 00:34:50;;;;;;;3.95;1.40;;;;;;;-5.30;39.95;101773.86;1754066;82;21042;-62
2022/03/11 00:37:19;;;;;;;3.00;1.50;;;;;;;-5.33;40.00;101780.20;1753899;82;21039;-62
2022/03/11 00:39:48;;;;;;;3.92;1.42;;;;;;;-5.38;40.25;101780.85;1753899;82;21007;-63
2022/03/11 00:42:18;;;;;;;2.10;1.10;;;;;;;-5.38;40.17;101758.63;1754460;82;21022;-61
2022/03/11 00:44:47;;;;;;;4.00;1.60;;;;;;;-5.39;40.21;101772.91;1754319;82;21086;-62
2022/03/11 00:47:15;;;;;;;3.67;1.50;;;;;;;-5.41;40.31;101764.95;1751835;82;21063;-63
2022/03/11 00:49:45;;;;;;;6.22;1.87;;;;;;;-5.36;40.28;101758.09;1740301;82;21027;-63
2022/03/11 00:52:14;;;;;;;3.25;1.62;;;;;;;-5.36;40.32;101756.28;1740335;82;21511;-63
2022/03/11 00:54:43;;;;;;;2.75;1.40;;;;;;;-5.35;40.31;101754.02;1740445;82;21071;-63
2022/03/11 00:57:12;;;;;;;3.95;1.22;;;;;;;-5.31;40.31;101756.09;1740219;82;21040;-63
2022/03/11 00:59:41;;;;;;;4.95;1.70;;;;;;;-5.32;40.18;101752.55;1740161;82;21023;-65
2022/03/11 01:02:10;;;;;;;3.02;1.50;;;;;;;-5.33;40.22;101748.14;1740129;81;21039;-63
2022/03/11 01:04:40;;;;;;;3.58;1.10;;;;;;;-5.31;40.19;101747.62;1740399;82;21032;-62
2022/03/11 01:07:10;;;;;;;6.08;1.70;;;;;;;-5.30;40.34;101749.83;1658636;86;21561;-63
2022/03/11 01:09:39;;;;;;;2.87;1.45;;;;;;;-5.32;40.28;101743.67;1658414;86;21050;-63
2022/03/11 01:12:08;;;;;;;3.10;1.35;;;;;;;-5.35;40.32;101742.47;1658478;86;21458;-63
2022/03/11 01:14:39;;;;;;;3.08;1.30;;;;;;;-5.39;40.53;101748.87;1658743;86;21082;-61
2022/03/11 01:17:11;;;;;;;3.37;1.52;;;;;;;-5.44;40.45;101742.38;1658897;86;21171;-62
2022/03/11 01:19:41;;;;;;;3.52;1.35;;;;;;;-5.48;40.60;101752.32;1580821;90;21220;-63
2022/03/11 01:22:10;;;;;;;3.20;1.60;;;;;;;-5.51;40.78;101744.90;1581065;91;21074;-63
2022/03/11 01:24:40;;;;;;;3.27;1.40;;;;;;;-5.51;40.96;101750.23;1580916;91;21122;-63
2022/03/11 01:27:10;;;;;;;3.55;1.32;;;;;;;-5.53;41.08;101747.63;1581048;91;21045;-64
2022/03/11 01:29:39;;;;;;;2.98;1.30;;;;;;;-5.53;40.99;101747.63;1580825;91;21086;-63
2022/03/11 01:32:07;;;;;;;8.73;1.42;;;;;;;-5.54;41.01;101745.89;1630074;86;21520;-63
2022/03/11 01:34:37;;;;;;;4.80;1.60;;;;;;;-5.56;41.25;101751.76;1658648;86;21047;-63
2022/03/11 01:37:06;;;;;;;3.80;1.70;;;;;;;-5.55;41.33;101746.83;1673758;82;21110;-63
2022/03/11 01:39:35;;;;;;;3.67;1.30;;;;;;;-5.54;41.22;101748.56;1740028;82;21458;-63
2022/03/11 01:42:06;;;;;;;2.75;1.27;;;;;;;-5.53;41.01;101746.30;1740325;82;21086;-64
2022/03/11 01:44:36;;;;;;;3.02;1.35;;;;;;;-5.51;40.93;101752.91;1740111;82;21031;-63
2022/03/11 01:47:07;;;;;;;3.12;1.37;;;;;;;-5.52;40.93;101745.83;1740121;81;21039;-63
2022/03/11 01:49:36;;;;;;;3.35;1.50;;;;;;;-5.50;40.88;101753.31;1704598;84;21056;-62
2022/03/11 01:52:06;;;;;;;5.47;1.60;;;;;;;-5.48;40.85;101738.97;1704796;83;21055;-64
2022/03/11 01:54:35;;;;;;;6.80;1.57;;;;;;;-5.46;40.69;101735.77;1704704;84;21048;-63
2022/03/11 01:57:04;;;;;;;2.90;1.27;;;;;;;-5.49;40.59;101742.56;1704873;84;21103;-64
2022/03/11 01:59:33;;;;;;;3.72;1.40;;;;;;;-5.52;40.74;101739.16;1704827;84;21087;-63
2022/03/11 02:02:03;;;;;;;3.20;1.42;;;;;;;-5.51;40.91;101744.44;1704892;84;21024;-62
2022/03/11 02:04:34;;;;;;;4.37;1.70;;;;;;;-5.52;40.68;101753.38;1704779;83;21028;-62
2022/03/11 02:07:04;;;;;;;3.45;1.57;;;;;;;-5.55;40.64;101752.16;1704910;83;21296;-63
2022/03/11 02:09:34;;;;;;;2.52;1.27;;;;;;;-5.56;40.59;101749.56;1705086;84;21067;-64
2022/03/11 02:12:04;;;;;;;4.70;1.42;;;;;;;-5.59;40.73;101746.55;1704960;84;21036;-62
2022/03/11 02:14:34;;;;;;;2.52;1.20;;;;;;;-5.57;40.75;101751.36;1704815;84;21020;-63
2022/03/11 02:17:04;;;;;;;3.42;1.40;;;;;;;-5.60;40.83;101751.48;1652987;86;21076;-63
2022/03/11 02:19:34;;;;;;;4.40;1.40;;;;;;;-5.63;40.93;101750.27;1653012;87;21095;-63
2022/03/11 02:22:03;;;;;;;3.67;1.50;;;;;;;-5.65;40.87;101752.13;1653209;87;21084;-64
2022/03/11 02:24:32;;;;;;;3.45;1.30;;;;;;;-5.66;40.90;101753.53;1652736;86;21095;-64
2022/03/11 02:27:02;;;;;;;4.62;1.50;;;;;;;-5.67;40.79;101745.11;1652933;86;21100;-63
2022/03/11 02:29:32;;;;;;;4.72;1.40;;;;;;;-5.71;40.87;101743.03;1652846;87;21099;-63
2022/03/11 02:32:02;;;;;;;3.08;1.50;;;;;;;-5.76;41.05;101739.21;1652779;87;21139;-63
2022/03/11 02:34:31;;;;;;;3.95;1.50;;;;;;;-5.79;41.13;101745.14;1663090;84;21032;-63
2022/03/11 02:37:03;;;;;;;3.05;1.50;;;;;;;-5.81;41.43;101745.66;1704744;84;21024;-63
2022/03/11 02:39:32;;;;;;;2.47;1.17;;;;;;;-5.79;41.42;101761.16;1704779;84;21472;-63
2022/03/11 02:42:06;;;;;;;4.58;1.77;;;;;;;-5.78;41.38;101759.76;1705007;84;21048;-63
2022/03/11 02:44:38;;;;;;;2.80;1.30;;;;;;;-5.76;41.23;101753.02;1704771;84;21036;-63
2022/03/11 02:47:08;;;;;;;1.87;1.10;;;;;;;-5.81;41.20;101751.87;1704917;84;21025;-63
2022/03/11 02:49:38;;;;;;;4.28;1.60;;;;;;;-5.83;41.38;101750.20;1750059;82;21062;-63
2022/03/11 02:52:08;;;;;;;3.72;1.52;;;;;;;-5.87;41.38;101755.22;1754281;82;21038;-63
2022/03/11 02:54:37;;;;;;;4.08;1.67;;;;;;;-5.90;41.49;101755.37;1754181;82;21038;-64
2022/03/11 02:57:07;;;;;;;3.15;1.50;;;;;;;-5.91;41.66;101775.84;1753641;82;21085;-63
2022/03/11 02:59:36;;;;;;;6.92;1.70;;;;;;;-5.96;41.57;101767.14;1753942;82;21082;-63
2022/03/11 03:02:06;;;;;;;3.08;1.47;;;;;;;-5.95;41.65;101766.22;1753969;82;21051;-63
2022/03/11 03:04:36;;;;;;;3.22;1.55;;;;;;;-5.93;41.71;101759.02;1753967;82;21614;-64
2022/03/11 03:07:06;;;;;;;3.37;1.30;;;;;;;-5.93;41.73;101766.16;1754184;82;21103;-63
2022/03/11 03:09:41;;;;;;;2.30;1.30;;;;;;;-5.94;41.75;101768.42;1754186;82;20994;-63
2022/03/11 03:12:10;;;;;;;4.65;1.50;;;;;;;-5.97;41.84;101768.08;1753729;82;21031;-62
2022/03/11 03:14:39;;;;;;;3.15;1.40;;;;;;;-6.02;41.88;101760.71;1754148;82;21069;-63
2022/03/11 03:17:08;;;;;;;3.17;1.60;;;;;;;-6.04;41.89;101767.03;1754082;82;21030;-63
2022/03/11 03:19:38;;;;;;;4.08;1.70;;;;;;;-6.05;42.07;101758.63;1754104;82;21078;-62
2022/03/11 03:22:07;;;;;;;5.22;1.85;;;;;;;-6.09;42.12;101768.08;1754355;82;21003;-63
2022/03/11 03:24:37;;;;;;;2.65;1.52;;;;;;;-6.10;42.19;101770.80;1753962;82;21281;-62
2022/03/11 03:27:06;;;;;;;5.17;1.62;;;;;;;-6.11;42.24;101767.27;1753955;82;21070;-63
2022/03/11 03:29:36;;;;;;;4.47;1.85;;;;;;;-6.14;42.38;101758.52;1753976;82;21058;-62
2022/03/11 03:32:06;;;;;;;4.05;1.90;;;;;;;-6.18;42.32;101757.77;1753991;82;21007;-63
2022/03/11 03:34:37;;;;;;;4.17;1.60;;;;;;;-6.19;42.46;101767.16;1754253;82;21070;-62
2022/03/11 03:37:09;;;;;;;3.83;1.62;;;;;;;-6.20;42.53;101768.95;1754036;81;21085;-62
2022/03/11 03:39:39;;;;;;;4.12;2.08;;;;;;;-6.25;42.54;101762.92;1753913;82;21447;-63
2022/03/11 03:42:09;;;;;;;7.12;2.25;;;;;;;-6.25;42.63;101758.92;1753942;82;21093;-63
2022/03/11 03:44:38;;;;;;;3.22;1.75;;;;;;;-6.27;42.73;101760.77;1754014;82;21454;-63
2022/03/11 03:47:07;;;;;;;3.87;1.87;;;;;;;-6.27;42.79;101755.44;1753970;82;21062;-63
2022/03/11 03:49:37;;;;;;;4.28;1.70;;;;;;;-6.28;42.73;101764.37;1753942;82;21110;-63
2022/03/11 03:52:11;;;;;;;3.40;1.85;;;;;;;-6.32;42.87;101755.20;1754014;82;21058;-62
2022/03/11 03:54:39;;;;;;;3.85;1.70;;;;;;;-6.30;43.00;101760.89;1754245;82;21034;-61
2022/03/11 03:57:10;;;;;;;5.55;1.92;;;;;;;-6.32;43.10;101761.41;1754071;80;21030;-63
2022/03/11 03:59:40;;;;;;;2.60;1.42;;;;;;;-6.33;43.06;101759.67;1753938;81;21098;-62
2022/03/11 04:02:09;;;;;;;2.92;1.60;;;;;;;-6.36;43.29;101760.25;1754103;82;21063;-62
2022/03/11 04:04:40;;;;;;;2.90;1.50;;;;;;;-6.36;43.29;101762.91;1753942;82;21491;-62
2022/03/11 04:07:09;;;;;;;6.15;1.65;;;;;;;-6.33;43.29;101774.80;1753875;82;21093;-62
2022/03/11 04:09:37;;;;;;;6.37;1.85;;;;;;;-6.35;43.24;101770.86;1753792;80;21043;-61
2022/03/11 04:12:09;;;;;;;4.58;1.62;;;;;;;-6.39;43.36;101773.23;1754141;81;21031;-62
2022/03/11 04:14:40;;;;;;;3.58;1.45;;;;;;;-6.43;43.54;101774.27;1753879;82;21043;-63
2022/03/11 04:17:10;;;;;;;3.47;1.52;;;;;;;-6.48;43.68;101770.90;1754014;82;21445;-61
2022/03/11 04:19:39;;;;;;;4.20;1.52;;;;;;;-6.48;43.68;101769.56;1753913;82;21030;-62
2022/03/11 04:22:09;;;;;;;3.62;1.62;;;;;;;-6.51;43.75;101772.31;1754216;82;21038;-64
2022/03/11 04:24:38;;;;;;;4.35;1.70;;;;;;;-6.55;43.93;101775.55;1753992;82;21058;-63
2022/03/11 04:27:08;;;;;;;2.60;1.50;;;;;;;-6.52;43.93;101773.23;1754260;82;21075;-63
2022/03/11 04:29:40;;;;;;;2.17;1.17;;;;;;;-6.51;44.10;101770.52;1753982;82;21078;-62
2022/03/11 04:32:09;;;;;;;5.75;1.70;;;;;;;-6.51;44.14;101780.31;1754050;82;21086;-64
2022/03/11 04:34:38;;;;;;;4.65;1.70;;;;;;;-6.53;44.30;101773.70;1754015;82;21051;-62
2022/03/11 04:37:08;;;;;;;3.92;1.40;;;;;;;-6.55;44.33;101778.68;1753946;82;21034;-63
2022/03/11 04:39:37;;;;;;;2.95;1.35;;;;;;;-6.56;44.37;101783.14;1754030;82;21462;-65
2022/03/11 04:42:09;;;;;;;4.40;1.70;;;;;;;-6.52;44.42;101775.44;1754188;82;21035;-64
2022/03/11 04:44:38;;;;;;;4.30;1.60;;;;;;;-6.53;44.39;101779.03;1656550;86;21044;-64
2022/03/11 04:47:07;;;;;;;4.22;1.67;;;;;;;-6.51;44.57;101779.84;1656843;86;21059;-63
2022/03/11 04:49:36;;;;;;;2.37;1.42;;;;;;;-6.50;44.52;101784.28;1654421;86;21130;-64
2022/03/11 04:52:07;;;;;;;2.33;1.25;;;;;;;-6.53;44.71;101792.36;1653249;85;21065;-63
2022/03/11 04:54:37;;;;;;;3.90;1.37;;;;;;;-6.56;44.72;101796.93;1653453;87;21075;-62
2022/03/11 04:57:06;;;;;;;4.22;1.60;;;;;;;-6.58;44.81;101794.32;1653561;87;21043;-63
2022/03/11 04:59:37;;;;;;;3.02;1.22;;;;;;;-6.60;44.98;101796.17;1653220;85;21031;-63
2022/03/11 05:02:06;;;;;;;3.62;1.50;;;;;;;-6.60;44.90;101812.63;1671455;82;21020;-63
2022/03/11 05:04:35;;;;;;;4.20;1.57;;;;;;;-6.62;44.97;101803.81;1740371;82;21036;-63
2022/03/11 05:07:07;;;;;;;4.03;1.40;;;;;;;-6.61;44.91;101805.55;1740182;82;21110;-65
2022/03/11 05:09:35;;;;;;;4.87;1.32;;;;;;;-6.63;45.07;101813.61;1740371;82;21054;-63
2022/03/11 05:12:07;;;;;;;2.33;1.35;;;;;;;-6.62;45.10;101814.47;1740286;82;21011;-62
2022/03/11 05:14:36;;;;;;;4.45;1.47;;;;;;;-6.62;45.28;101822.47;1740383;82;21051;-63
2022/03/11 05:17:05;;;;;;;2.52;1.12;;;;;;;-6.64;45.19;101823.86;1740434;82;21055;-62
2022/03/11 05:19:36;;;;;;;9.80;1.40;;;;;;;-6.65;45.24;101818.58;1740034;82;21481;-64
2022/03/11 05:22:06;;;;;;;4.87;1.75;;;;;;;-6.65;45.35;101823.45;1740079;81;21106;-63
2022/03/11 05:24:35;;;;;;;3.72;1.30;;;;;;;-6.66;45.35;101815.51;1740161;81;21424;-63
2022/03/11 05:27:06;;;;;;;8.20;1.60;;;;;;;-6.65;45.43;101817.25;1740033;82;21530;-64
2022/03/11 05:29:36;;;;;;;3.15;1.40;;;;;;;-6.63;45.36;101822.94;1740158;81;21051;-63
2022/03/11 05:32:08;;;;;;;4.90;1.57;;;;;;;-6.60;45.37;101812.63;1740151;82;21004;-62
2022/03/11 05:34:42;;;;;;;4.97;2.20;;;;;;;-6.58;45.35;101812.98;1740161;81;21423;-62
2022/03/11 05:37:07;;;;;;;3.60;1.65;;;;;;;-6.54;45.27;101821.73;1739588;82;21054;-64
2022/03/11 05:39:37;;;;;;;5.15;2.27;;;;;;;-6.53;45.17;101823.02;1740085;82;21004;-63
2022/03/11 05:42:07;;;;;;;4.60;1.72;;;;;;;-6.57;45.25;101809.85;1740384;82;21035;-63
2022/03/11 05:44:36;;;;;;;21.95;2.80;;;;;;;-6.59;45.36;101810.37;1740162;82;21484;-64
2022/03/11 05:47:06;;;;;;;10.10;2.02;;;;;;;-6.58;45.34;101821.44;1740107;82;21015;-63
2022/03/11 05:49:35;;;;;;;5.37;1.70;;;;;;;-6.62;45.58;101818.02;1745736;82;21050;-62
2022/03/11 05:52:08;;;;;;;6.15;1.85;;;;;;;-6.60;45.73;101820.63;1753972;82;21086;-64
2022/03/11 05:54:40;;;;;;;4.67;2.08;;;;;;;-6.57;45.79;101820.52;1753863;82;21466;-67
2022/03/11 05:57:11;;;;;;;5.65;1.90;;;;;;;-6.57;45.86;101817.84;1753840;82;21042;-63
2022/03/11 05:59:40;;;;;;;4.53;1.72;;;;;;;-6.52;45.72;101829.22;1753716;82;21066;-64
2022/03/11 06:02:09;;;;;;;6.42;1.85;;;;;;;-6.48;45.76;101829.09;1753799;82;21035;-64
2022/03/11 06:04:38;;;;;;;5.00;1.60;;;;;;;-6.47;45.63;101843.29;1754090;82;21059;-63
2022/03/11 06:07:07;;;;;;;7.17;1.92;;;;;;;-6.48;45.65;101833.09;1753900;82;21035;-64
2022/03/11 06:09:36;;;;;;;4.42;1.90;;;;;;;-6.46;45.68;101829.03;1753829;82;21106;-62
2022/03/11 06:12:08;;;;;;;3.75;1.55;;;;;;;-6.41;45.93;101832.41;1754015;82;21034;-61
2022/03/11 06:14:36;;;;;;;5.58;1.92;;;;;;;-6.35;45.90;101828.19;1753886;82;21039;-63
2022/03/11 06:17:05;;;;;;;3.92;2.02;;;;;;;-6.30;45.89;101824.89;1754225;81;21094;-63
2022/03/11 06:19:35;;;;;;;6.28;1.82;;;;;;;-6.25;45.86;101828.73;1753897;82;21062;-63
2022/03/11 06:22:05;;;;;;;2.83;1.37;;;;;;;-6.21;45.66;101835.23;1753874;82;21490;-63
2022/03/11 06:24:34;;;;;;;3.80;1.85;;;;;;;-6.22;45.54;101830.81;1753934;80;21552;-63
2022/03/11 06:27:03;;;;;;;5.05;1.82;;;;;;;-6.21;45.48;101821.89;1753827;82;21039;-63
2022/03/11 06:29:32;;;;;;;7.50;1.80;;;;;;;-6.20;45.45;101824.97;1753794;82;21704;-63
2022/03/11 06:32:01;;;;;;;4.97;1.72;;;;;;;-6.18;45.47;101819.11;1753913;82;21007;-63
2022/03/11 06:34:32;;;;;;;4.00;1.65;;;;;;;-6.12;45.31;101829.55;1753864;82;21070;-63
2022/03/11 06:37:00;;;;;;;8.68;1.80;;;;;;;-6.05;45.02;101822.66;1753814;82;21058;-63
2022/03/11 06:39:30;;;;;;;2.30;1.40;;;;;;;-6.03;44.82;101817.67;1753890;82;21181;-63
2022/03/11 06:41:58;;;;;;;3.65;1.67;;;;;;;-6.00;44.58;101824.69;1753925;80;21102;-62
2022/03/11 06:44:30;;;;;;;4.62;1.50;;;;;;;-5.95;44.02;101821.38;1753719;82;21466;-63
2022/03/11 06:46:58;;;;;;;3.92;1.72;;;;;;;-5.92;43.92;101814.59;1753961;82;21050;-63
2022/03/11 06:49:28;;;;;;;5.33;1.70;;;;;;;-5.91;43.95;101807.87;1753927;82;21082;-63
2022/03/11 06:51:56;;;;;;;2.62;1.57;;;;;;;-5.85;43.95;101820.11;1753911;82;21063;-62
2022/03/11 06:54:25;;;;;;;4.15;1.62;;;;;;;-5.80;43.57;101817.67;1754181;82;21098;-61
2022/03/11 06:56:55;;;;;;;4.47;1.52;;;;;;;-5.78;43.46;101804.27;1753977;82;21043;-62
2022/03/11 06:59:24;;;;;;;5.80;1.72;;;;;;;-5.70;43.51;101807.97;1754121;82;21512;-62
2022/03/11 07:01:54;;;;;;;4.22;1.30;;;;;;;-5.65;43.34;101800.19;1754228;80;21000;-64
2022/03/11 07:04:25;;;;;;;7.12;1.80;;;;;;;-5.57;42.93;101804.76;1753982;80;21094;-63
2022/03/11 07:06:54;;;;;;;5.42;1.55;;;;;;;-5.53;42.48;101802.84;1753972;80;21062;-63
2022/03/11 07:09:24;;;;;;;5.70;1.50;;;;;;;-5.50;42.23;101798.24;1754300;82;21070;-63
2022/03/11 07:11:57;;;;;;;5.20;1.60;;;;;;;-5.43;41.76;101796.20;1753962;82;21067;-63
2022/03/11 07:14:24;;;;;;;2.15;1.15;;;;;;;-5.38;41.46;101782.19;1753948;82;21054;-63
2022/03/11 07:16:56;;;;;;;3.58;1.22;;;;;;;-5.33;41.35;101789.55;1753742;82;21095;-62
2022/03/11 07:19:27;;;;;;;4.25;1.25;;;;;;;-5.26;40.98;101799.52;1753957;82;21058;-63
2022/03/11 07:22:03;;;;;;;2.85;1.20;;;;;;;-5.18;40.72;101805.45;1753837;80;21097;-63
2022/03/11 07:24:33;;;;;;;4.62;1.12;;;;;;;-5.12;40.06;101796.72;1754379;82;21011;-62
2022/03/11 07:27:03;;;;;;;2.60;1.32;;;;;;;-5.05;40.09;101793.78;1753842;82;21043;-64
2022/03/11 07:29:33;;;;;;;4.62;1.50;;;;;;;-5.00;39.88;101806.02;1725060;82;21070;-62
2022/03/11 07:32:02;;;;;;;2.15;1.15;;;;;;;-4.97;39.42;101801.88;1753964;82;21023;-64
2022/03/11 07:34:33;;;;;;;5.85;1.00;;;;;;;-4.91;39.25;101805.64;1754225;82;21049;-63
2022/03/11 07:37:02;;;;;;;3.33;1.10;;;;;;;-4.83;39.32;101802.64;1754021;82;21082;-63
2022/03/11 07:39:32;;;;;;;6.03;1.22;;;;;;;-4.76;38.68;101808.12;1753876;82;21035;-63
2022/03/11 07:42:02;;;;;;;6.75;1.20;;;;;;;-4.70;38.04;101815.89;1754228;82;21094;-63
2022/03/11 07:44:33;;;;;;;5.90;1.17;;;;;;;-4.67;37.24;101797.03;1753974;80;21451;-63
2022/03/11 07:47:03;;;;;;;2.87;1.22;;;;;;;-4.63;36.88;101798.64;1754145;82;21054;-63
2022/03/11 07:49:32;;;;;;;4.67;1.12;;;;;;;-4.57;37.29;101789.02;1754049;82;21034;-63
2022/03/11 07:52:03;;;;;;;1.05;0.78;;;;;;;-4.46;37.24;101795.26;1754027;82;21071;-62
2022/03/11 07:54:33;;;;;;;3.37;1.12;;;;;;;-4.41;36.79;101797.73;1753966;82;21059;-64
2022/03/11 07:57:04;;;;;;;6.72;1.27;;;;;;;-4.36;36.72;101791.23;1754168;82;21007;-63
2022/03/11 07:59:34;;;;;;;2.47;1.02;;;;;;;-4.27;36.75;101799.32;1754036;82;21062;-62
2022/03/11 08:02:04;;;;;;;6.22;1.37;;;;;;;-4.16;36.43;101811.28;1753996;82;21058;-63
2022/03/11 08:04:36;;;;;;;2.85;1.15;;;;;;;-4.05;35.59;101814.80;1754138;82;21070;-63
2022/03/11 08:07:11;;;;;;;2.92;1.05;;;;;;;-3.87;34.86;101798.41;1754174;82;21538;-64
2022/03/11 08:09:39;;;;;;;6.87;1.22;;;;;;;-3.87;34.86;101798.41;1753910;82;21062;-63
2022/03/11 08:12:12;;;;;;;2.47;0.90;;;;;;;-3.75;34.90;101791.13;1753926;82;21062;-63
2022/03/11 08:14:41;;;;;;;3.52;1.27;;;;;;;-3.38;35.03;101784.01;1754233;82;21027;-63
2022/03/11 08:17:12;;;;;;;2.52;1.15;;;;;;;-3.38;35.03;101784.01;1753971;82;21431;-62
2022/03/11 08:19:42;;;;;;;4.58;0.90;;;;;;;-3.20;34.83;101785.82;1753909;82;21031;-63
2022/03/11 08:22:12;;;;;;;2.47;1.10;;;;;;;-3.08;33.83;101785.20;1754386;82;21050;-63
2022/03/11 08:24:41;;;;;;;4.80;1.10;;;;;;;-3.06;33.65;101788.68;1754255;82;21062;-63
2022/03/11 08:27:11;;;;;;;3.52;1.30;;;;;;;-3.05;33.47;101791.76;1754052;82;21070;-63
2022/03/11 08:29:40;;;;;;;2.58;1.00;;;;;;;-2.97;33.36;101783.33;1754062;82;21059;-64
2022/03/11 08:32:09;;;;;;;5.08;1.20;;;;;;;-2.71;33.17;101786.02;1753941;81;21066;-63
2022/03/11 08:34:39;;;;;;;3.37;1.05;;;;;;;-2.52;32.68;101778.78;1754082;82;21047;-62
2022/03/11 08:37:09;;;;;;;4.65;1.25;;;;;;;-2.42;32.44;101778.70;1749989;80;21534;-63
2022/03/11 08:39:40;;;;;;;1.42;0.80;;;;;;;-2.35;31.46;101777.90;1753936;82;21051;-64
2022/03/11 08:42:11;;;;;;;2.67;0.93;;;;;;;-2.22;30.94;101780.32;1754273;82;21078;-64
2022/03/11 08:44:40;;;;;;;6.22;1.45;;;;;;;-1.98;30.93;101788.39;1754113;82;21039;-63
2022/03/11 08:47:10;;;;;;;5.03;1.20;;;;;;;-1.69;31.01;101777.89;1754160;82;21086;-64
2022/03/11 08:49:40;;;;;;;8.33;1.35;;;;;;;-1.33;30.79;101777.64;1753359;82;21037;-61
2022/03/11 08:52:10;;;;;;;2.47;1.37;;;;;;;-1.07;30.10;101781.55;1719444;82;21459;-62
2022/03/11 08:54:39;;;;;;;29.25;1.87;;;;;;;-0.90;29.89;101762.59;1740206;82;21035;-63
2022/03/11 08:57:10;;;;;;;4.08;1.35;;;;;;;-0.82;29.77;101763.47;1740487;81;21035;-64
2022/03/11 08:59:40;;;;;;;2.40;1.20;;;;;;;-0.81;29.75;101772.80;1740398;82;21074;-65
2022/03/11 09:02:09;;;;;;;8.43;1.27;;;;;;;-0.81;29.74;101778.19;1740359;81;21036;-63
2022/03/11 09:04:40;;;;;;;3.33;1.40;;;;;;;-0.85;30.00;101765.00;1740355;82;21035;-63
2022/03/11 09:07:09;;;;;;;5.00;1.25;;;;;;;-0.92;29.38;101767.67;1740295;82;21071;-62
2022/03/11 09:09:40;;;;;;;3.45;1.10;;;;;;;-1.01;29.74;101759.19;1686494;85;20995;-63
2022/03/11 09:12:10;;;;;;;2.52;1.10;;;;;;;-1.01;29.77;101767.25;1686593;85;21078;-64
2022/03/11 09:14:39;;;;;;;5.85;1.62;;;;;;;-1.00;30.15;101761.40;1686523;85;21078;-63
2022/03/11 09:17:08;;;;;;;5.33;1.17;;;;;;;-1.02;29.93;101785.70;1686489;85;21035;-63
2022/03/11 09:19:39;;;;;;;3.65;1.20;;;;;;;-1.12;29.81;101764.33;1686645;85;21459;-62
2022/03/11 09:22:14;;;;;;;3.77;1.00;;;;;;;-1.23;29.56;101773.50;1682765;84;21142;-63
2022/03/11 09:24:44;;;;;;;8.23;1.67;;;;;;;-1.34;29.95;101763.33;1686420;85;21593;-62
2022/03/11 09:27:13;;;;;;;9.20;1.10;;;;;;;-1.38;29.97;101777.03;1699804;82;21066;-63
2022/03/11 09:29:43;;;;;;;4.87;1.30;;;;;;;-1.40;29.77;101777.59;1740224;82;21067;-63
2022/03/11 09:32:12;;;;;;;3.33;1.27;;;;;;;-1.41;29.89;101775.86;1740272;82;20995;-63
2022/03/11 09:34:43;;;;;;;7.08;1.07;;;;;;;-1.37;30.18;101768.87;1740426;82;21043;-61
2022/03/11 09:37:12;;;;;;;2.33;1.00;;;;;;;-1.26;29.83;101776.36;1740425;82;21004;-63
2022/03/11 09:39:41;;;;;;;3.50;1.25;;;;;;;-1.22;29.52;101779.73;1740378;82;21035;-62
2022/03/11 09:42:11;;;;;;;5.53;1.30;;;;;;;-1.23;29.48;101786.94;1740394;82;21051;-62
2022/03/11 09:44:41;;;;;;;5.20;1.15;;;;;;;-1.25;29.20;101807.67;1740340;82;21087;-64
2022/03/11 09:47:12;;;;;;;4.40;1.15;;;;;;;-1.32;29.24;101782.06;1719735;82;21063;-63
2022/03/11 09:49:40;;;;;;;3.87;1.02;;;;;;;-1.38;29.44;101777.90;1719716;82;21040;-62
2022/03/11 09:52:10;;;;;;;6.22;1.25;;;;;;;-1.36;29.44;101793.46;1738043;82;21130;-64
2022/03/11 09:54:41;;;;;;;2.65;1.00;;;;;;;-1.32;29.35;101778.89;1738195;82;21062;-64
2022/03/11 09:57:16;;;;;;;3.27;1.20;;;;;;;-1.33;29.34;101778.98;1738247;82;21066;-63
2022/03/11 09:59:45;;;;;;;4.97;1.10;;;;;;;-1.32;29.52;101765.45;1738168;82;21035;-63
2022/03/11 10:02:16;;;;;;;5.87;1.32;;;;;;;-1.24;29.84;101774.92;1736850;81;21035;-64
2022/03/11 10:04:51;;;;;;;3.25;1.20;;;;;;;-1.18;29.51;101769.20;1738252;82;21047;-65
2022/03/11 10:07:26;;;;;;;3.95;0.98;;;;;;;-1.16;29.30;101761.91;1735333;82;21051;-64
2022/03/11 10:09:57;;;;;;;3.75;1.20;;;;;;;-1.14;29.29;101761.34;1737240;82;21086;-64
2022/03/11 10:12:29;;;;;;;4.28;1.10;;;;;;;-1.14;29.44;101766.72;1737911;82;21529;-63
2022/03/11 10:15:03;;;;;;;7.47;1.77;;;;;;;-1.16;29.64;101757.39;1737988;82;21479;-63
2022/03/11 10:17:39;;;;;;;4.15;1.22;;;;;;;-1.13;29.81;101766.63;1738009;82;21019;-63
2022/03/11 10:20:11;;;;;;;7.58;1.57;;;;;;;-1.08;29.07;101777.12;1738060;82;21106;-64
2022/03/11 10:22:41;;;;;;;4.45;1.17;;;;;;;-1.06;29.11;101757.25;1737964;82;21125;-62
2022/03/11 10:25:21;;;;;;;3.20;1.20;;;;;;;-1.03;29.35;101757.55;1738187;82;21476;-63
2022/03/11 10:28:03;;;;;;;2.55;1.17;;;;;;;-1.00;28.74;101758.23;1737870;82;21075;-63
2022/03/11 10:30:35;;;;;;;2.98;1.30;;;;;;;-1.03;29.09;101759.75;1738342;82;21067;-63
2022/03/11 10:33:11;;;;;;;5.55;1.20;;;;;;;-1.04;29.17;101770.13;1737992;82;21090;-64
2022/03/11 10:35:49;;;;;;;7.00;0.98;;;;;;;-1.01;29.40;101768.60;1738214;82;21051;-64
2022/03/11 10:38:21;;;;;;;2.58;1.17;;;;;;;-0.96;28.45;101766.50;1738486;82;21258;-63
2022/03/11 10:40:52;;;;;;;4.85;0.98;;;;;;;-0.91;28.48;101759.51;1717849;82;21035;-62
2022/03/11 10:43:25;;;;;;;9.35;1.30;;;;;;;-0.90;28.20;101758.55;1738172;82;21436;-63
2022/03/11 10:46:09;;;;;;;5.17;1.20;;;;;;;-0.89;27.63;101767.48;1738060;81;21079;-64
2022/03/11 10:48:46;;;;;;;7.50;1.00;;;;;;;-0.91;28.30;101746.53;1738220;82;21073;-64
2022/03/11 10:51:30;;;;;;;2.80;1.05;;;;;;;-0.90;28.40;101747.79;1738277;82;21095;-64
2022/03/11 10:54:04;;;;;;;3.25;1.00;;;;;;;-0.85;28.70;101764.53;1738111;82;21421;-63
2022/03/11 10:56:39;;;;;;;5.83;0.80;;;;;;;-0.77;28.21;101757.34;1738161;82;21194;-62
2022/03/11 10:59:26;;;;;;;2.62;0.90;;;;;;;-0.73;28.46;101746.78;1738430;81;21067;-62
2022/03/11 11:01:58;;;;;;;2.20;0.90;;;;;;;-0.67;28.21;101735.64;1738107;82;21126;-63
2022/03/11 11:04:27;;;;;;;2.75;0.98;;;;;;;-0.62;27.88;101752.41;1738021;82;21024;-63
2022/03/11 11:06:57;;;;;;;14.20;1.22;;;;;;;-0.61;27.98;101735.30;1738299;82;21409;-65
2022/03/11 11:09:28;;;;;;;3.55;0.85;;;;;;;-0.60;28.04;101737.03;1738187;82;21464;-63
2022/03/11 11:11:58;;;;;;;4.92;0.98;;;;;;;-0.57;28.43;101742.71;1738291;82;21059;-65
2022/03/11 11:14:27;;;;;;;3.42;0.90;;;;;;;-0.51;28.34;101729.74;1738124;82;21545;-63
2022/03/11 11:16:56;;;;;;;4.58;0.95;;;;;;;-0.44;28.34;101732.92;1738314;82;21039;-64
2022/03/11 11:19:27;;;;;;;9.58;1.12;;;;;;;-0.36;28.29;101736.01;1738263;82;21055;-64
2022/03/11 11:21:56;;;;;;;3.47;1.75;;;;;;;-0.28;28.05;101731.49;1738360;82;21094;-64
2022/03/11 11:24:25;;;;;;;2.33;1.10;;;;;;;-0.22;28.05;101740.53;1738455;81;21139;-63
2022/03/11 11:26:56;;;;;;;1.72;0.70;;;;;;;-0.21;27.98;101739.09;1738364;82;21008;-63
2022/03/11 11:29:30;;;;;;;2.65;1.15;;;;;;;-0.19;28.41;101727.74;1738074;81;21530;-65
2022/03/11 11:32:00;;;;;;;4.40;1.47;;;;;;;-0.15;28.54;101718.98;1738124;82;21494;-64
2022/03/11 11:34:35;;;;;;;7.35;1.00;;;;;;;-0.08;28.54;101718.98;1738062;82;21463;-63
2022/03/11 11:37:07;;;;;;;4.10;1.17;;;;;;;-0.02;28.21;101720.81;1738157;82;21078;-64
2022/03/11 11:39:39;;;;;;;2.47;0.70;;;;;;;0.06;28.05;101729.78;1738128;81;21067;-62